sensor_id;sensor_type;location;lat;lon;timestamp;P1;durP1;ratioP1;P2;durP2;ratioP2
72205;SDS011;60111;48.286;7.812;2023-04-23T00:01:28;5.33;;;2.90;;
72205;SDS011;60111;48.286;7.812;2023-04-23T00:04:04;6.23;;;3.33;;
72205;SDS011;60111;48.286;7.812;2023-04-23T00:06:39;38.03;;;15.47;;
72205;SDS011;60111;48.286;7.812;2023-04-23T00:09:14;6.10;;;3.60;;
72205;SDS011;60111;48.286;7.812;2023-04-23T00:11:47;5.90;;;3.60;;
72205;SDS011;60111;48.286;7.812;2023-04-23T00:14:20;4.55;;;3.85;;
72205;SDS011;60111;48.286;7.812;2023-04-23T00:16:52;4.50;;;3.50;;
72205;SDS011;60111;48.286;7.812;2023-04-23T00:19:25;5.65;;;3.33;;
72205;SDS011;60111;48.286;7.812;2023-04-23T00:21:58;4.80;;;3.10;;
72205;SDS011;60111;48.286;7.812;2023-04-23T00:24:30;5.22;;;3.55;;
72205;SDS011;60111;48.286;7.812;2023-04-23T00:27:04;5.70;;;3.37;;
72205;SDS011;60111;48.286;7.812;2023-04-23T00:29:37;5.50;;;3.45;;
72205;SDS011;60111;48.286;7.812;2023-04-23T00:32:11;6.15;;;3.27;;
72205;SDS011;60111;48.286;7.812;2023-04-23T00:34:44;6.70;;;3.57;;
72205;SDS011;60111;48.286;7.812;2023-04-23T00:37:18;4.53;;;3.40;;
72205;SDS011;60111;48.286;7.812;2023-04-23T00:39:51;4.97;;;3.47;;
72205;SDS011;60111;48.286;7.812;2023-04-23T00:42:24;4.17;;;3.25;;
72205;SDS011;60111;48.286;7.812;2023-04-23T00:44:56;5.20;;;3.20;;
72205;SDS011;60111;48.286;7.812;2023-04-23T00:47:31;7.85;;;4.10;;
72205;SDS011;60111;48.286;7.812;2023-04-23T00:50:05;6.62;;;3.75;;
72205;SDS011;60111;48.286;7.812;2023-04-23T00:52:38;6.00;;;4.30;;
72205;SDS011;60111;48.286;7.812;2023-04-23T00:55:11;8.85;;;4.17;;
72205;SDS011;60111;48.286;7.812;2023-04-23T00:57:43;4.47;;;3.95;;
72205;SDS011;60111;48.286;7.812;2023-04-23T01:00:17;5.83;;;4.07;;
72205;SDS011;60111;48.286;7.812;2023-04-23T01:02:50;5.20;;;4.05;;
72205;SDS011;60111;48.286;7.812;2023-04-23T01:05:23;5.03;;;4.35;;
72205;SDS011;60111;48.286;7.812;2023-04-23T01:07:56;5.00;;;4.20;;
72205;SDS011;60111;48.286;7.812;2023-04-23T01:10:29;7.10;;;4.12;;
72205;SDS011;60111;48.286;7.812;2023-04-23T01:13:02;7.10;;;4.22;;
72205;SDS011;60111;48.286;7.812;2023-04-23T01:15:35;7.92;;;3.72;;
72205;SDS011;60111;48.286;7.812;2023-04-23T01:18:08;5.33;;;3.90;;
72205;SDS011;60111;48.286;7.812;2023-04-23T01:20:42;6.45;;;3.90;;
72205;SDS011;60111;48.286;7.812;2023-04-23T01:23:15;5.78;;;4.22;;
72205;SDS011;60111;48.286;7.812;2023-04-23T01:25:48;4.55;;;4.08;;
72205;SDS011;60111;48.286;7.812;2023-04-23T01:28:20;4.75;;;3.95;;
72205;SDS011;60111;48.286;7.812;2023-04-23T01:30:53;6.28;;;4.58;;
72205;SDS011;60111;48.286;7.812;2023-04-23T01:33:27;7.28;;;4.47;;
72205;SDS011;60111;48.286;7.812;2023-04-23T01:36:01;4.40;;;3.93;;
72205;SDS011;60111;48.286;7.812;2023-04-23T01:38:34;5.70;;;3.95;;
72205;SDS011;60111;48.286;7.812;2023-04-23T01:41:09;5.95;;;4.12;;
72205;SDS011;60111;48.286;7.812;2023-04-23T01:43:41;7.03;;;3.80;;
72205;SDS011;60111;48.286;7.812;2023-04-23T01:46:15;4.33;;;3.80;;
72205;SDS011;60111;48.286;7.812;2023-04-23T01:48:47;11.22;;;4.47;;
72205;SDS011;60111;48.286;7.812;2023-04-23T01:51:20;4.90;;;4.20;;
72205;SDS011;60111;48.286;7.812;2023-04-23T01:53:54;6.03;;;3.70;;
72205;SDS011;60111;48.286;7.812;2023-04-23T01:56:27;4.60;;;3.85;;
72205;SDS011;60111;48.286;7.812;2023-04-23T01:59:02;4.50;;;3.70;;
72205;SDS011;60111;48.286;7.812;2023-04-23T02:01:41;5.15;;;3.52;;
72205;SDS011;60111;48.286;7.812;2023-04-23T02:04:15;3.55;;;3.22;;
72205;SDS011;60111;48.286;7.812;2023-04-23T02:06:49;3.50;;;3.00;;
72205;SDS011;60111;48.286;7.812;2023-04-23T02:09:22;3.57;;;3.10;;
72205;SDS011;60111;48.286;7.812;2023-04-23T02:11:55;6.33;;;3.10;;
72205;SDS011;60111;48.286;7.812;2023-04-23T02:14:27;3.08;;;2.62;;
72205;SDS011;60111;48.286;7.812;2023-04-23T02:17:00;3.15;;;2.85;;
72205;SDS011;60111;48.286;7.812;2023-04-23T02:19:33;2.75;;;2.55;;
72205;SDS011;60111;48.286;7.812;2023-04-23T02:22:06;3.98;;;2.27;;
72205;SDS011;60111;48.286;7.812;2023-04-23T02:24:39;2.40;;;2.20;;
72205;SDS011;60111;48.286;7.812;2023-04-23T02:27:11;2.75;;;2.40;;
72205;SDS011;60111;48.286;7.812;2023-04-23T02:29:44;1.90;;;1.80;;
72205;SDS011;60111;48.286;7.812;2023-04-23T02:32:17;2.03;;;1.90;;
72205;SDS011;60111;48.286;7.812;2023-04-23T02:34:50;2.77;;;1.75;;
72205;SDS011;60111;48.286;7.812;2023-04-23T02:37:23;1.70;;;1.60;;
72205;SDS011;60111;48.286;7.812;2023-04-23T02:39:56;3.37;;;1.40;;
72205;SDS011;60111;48.286;7.812;2023-04-23T02:42:29;3.08;;;1.95;;
72205;SDS011;60111;48.286;7.812;2023-04-23T02:45:01;5.37;;;1.57;;
72205;SDS011;60111;48.286;7.812;2023-04-23T02:47:34;2.40;;;1.50;;
72205;SDS011;60111;48.286;7.812;2023-04-23T02:50:07;1.40;;;1.30;;
72205;SDS011;60111;48.286;7.812;2023-04-23T02:52:40;1.62;;;1.50;;
72205;SDS011;60111;48.286;7.812;2023-04-23T02:55:12;3.20;;;1.67;;
72205;SDS011;60111;48.286;7.812;2023-04-23T02:57:45;1.90;;;1.47;;
72205;SDS011;60111;48.286;7.812;2023-04-23T03:00:18;2.45;;;1.50;;
72205;SDS011;60111;48.286;7.812;2023-04-23T03:02:50;1.30;;;1.15;;
72205;SDS011;60111;48.286;7.812;2023-04-23T03:05:23;1.92;;;1.30;;
72205;SDS011;60111;48.286;7.812;2023-04-23T03:07:55;2.45;;;1.45;;
72205;SDS011;60111;48.286;7.812;2023-04-23T03:10:28;2.15;;;1.40;;
72205;SDS011;60111;48.286;7.812;2023-04-23T03:13:00;1.20;;;1.10;;
72205;SDS011;60111;48.286;7.812;2023-04-23T03:15:33;1.60;;;1.30;;
72205;SDS011;60111;48.286;7.812;2023-04-23T03:18:06;1.30;;;1.20;;
72205;SDS011;60111;48.286;7.812;2023-04-23T03:20:38;1.40;;;1.27;;
72205;SDS011;60111;48.286;7.812;2023-04-23T03:23:11;1.35;;;1.12;;
72205;SDS011;60111;48.286;7.812;2023-04-23T03:25:43;2.05;;;1.30;;
72205;SDS011;60111;48.286;7.812;2023-04-23T03:28:17;2.37;;;1.00;;
72205;SDS011;60111;48.286;7.812;2023-04-23T03:30:50;2.55;;;1.52;;
72205;SDS011;60111;48.286;7.812;2023-04-23T03:33:22;1.27;;;1.13;;
72205;SDS011;60111;48.286;7.812;2023-04-23T03:35:55;1.57;;;1.20;;
72205;SDS011;60111;48.286;7.812;2023-04-23T03:38:28;1.90;;;1.10;;
72205;SDS011;60111;48.286;7.812;2023-04-23T03:41:00;1.40;;;1.30;;
72205;SDS011;60111;48.286;7.812;2023-04-23T03:43:33;1.20;;;1.10;;
72205;SDS011;60111;48.286;7.812;2023-04-23T03:46:05;1.82;;;1.30;;
72205;SDS011;60111;48.286;7.812;2023-04-23T03:48:38;1.67;;;1.30;;
72205;SDS011;60111;48.286;7.812;2023-04-23T03:51:10;2.30;;;1.40;;
72205;SDS011;60111;48.286;7.812;2023-04-23T03:53:43;1.80;;;1.25;;
72205;SDS011;60111;48.286;7.812;2023-04-23T03:56:16;2.20;;;1.20;;
72205;SDS011;60111;48.286;7.812;2023-04-23T03:58:48;2.30;;;1.35;;
72205;SDS011;60111;48.286;7.812;2023-04-23T04:01:21;1.60;;;1.27;;
72205;SDS011;60111;48.286;7.812;2023-04-23T04:03:54;1.37;;;1.27;;
72205;SDS011;60111;48.286;7.812;2023-04-23T04:06:26;1.20;;;0.90;;
72205;SDS011;60111;48.286;7.812;2023-04-23T04:08:59;1.32;;;1.10;;
72205;SDS011;60111;48.286;7.812;2023-04-23T04:11:31;1.33;;;1.23;;
72205;SDS011;60111;48.286;7.812;2023-04-23T04:14:04;1.30;;;1.12;;
72205;SDS011;60111;48.286;7.812;2023-04-23T04:16:36;1.13;;;1.03;;
72205;SDS011;60111;48.286;7.812;2023-04-23T04:19:09;1.77;;;1.10;;
72205;SDS011;60111;48.286;7.812;2023-04-23T04:21:41;1.87;;;1.20;;
72205;SDS011;60111;48.286;7.812;2023-04-23T04:24:14;2.92;;;1.30;;
72205;SDS011;60111;48.286;7.812;2023-04-23T04:26:47;2.10;;;1.10;;
72205;SDS011;60111;48.286;7.812;2023-04-23T04:29:22;1.12;;;1.02;;
72205;SDS011;60111;48.286;7.812;2023-04-23T04:31:54;2.22;;;1.02;;
72205;SDS011;60111;48.286;7.812;2023-04-23T04:34:27;4.57;;;1.30;;
72205;SDS011;60111;48.286;7.812;2023-04-23T04:37:00;1.50;;;1.05;;
72205;SDS011;60111;48.286;7.812;2023-04-23T04:39:33;1.32;;;1.20;;
72205;SDS011;60111;48.286;7.812;2023-04-23T04:42:05;1.57;;;1.02;;
72205;SDS011;60111;48.286;7.812;2023-04-23T04:44:38;1.40;;;1.00;;
72205;SDS011;60111;48.286;7.812;2023-04-23T04:47:11;1.85;;;1.15;;
72205;SDS011;60111;48.286;7.812;2023-04-23T04:49:45;0.93;;;0.93;;
72205;SDS011;60111;48.286;7.812;2023-04-23T04:52:18;1.25;;;1.12;;
72205;SDS011;60111;48.286;7.812;2023-04-23T04:54:51;2.05;;;1.30;;
72205;SDS011;60111;48.286;7.812;2023-04-23T04:57:23;0.90;;;0.90;;
72205;SDS011;60111;48.286;7.812;2023-04-23T04:59:56;1.22;;;1.07;;
72205;SDS011;60111;48.286;7.812;2023-04-23T05:02:28;1.43;;;1.10;;
72205;SDS011;60111;48.286;7.812;2023-04-23T05:05:01;1.65;;;1.00;;
72205;SDS011;60111;48.286;7.812;2023-04-23T05:07:33;2.90;;;1.20;;
72205;SDS011;60111;48.286;7.812;2023-04-23T05:10:06;1.47;;;0.90;;
72205;SDS011;60111;48.286;7.812;2023-04-23T05:12:39;1.25;;;0.90;;
72205;SDS011;60111;48.286;7.812;2023-04-23T05:15:12;1.77;;;1.10;;
72205;SDS011;60111;48.286;7.812;2023-04-23T05:17:45;1.30;;;1.02;;
72205;SDS011;60111;48.286;7.812;2023-04-23T05:20:19;1.95;;;1.07;;
72205;SDS011;60111;48.286;7.812;2023-04-23T05:22:52;0.97;;;0.97;;
72205;SDS011;60111;48.286;7.812;2023-04-23T05:25:25;1.17;;;1.00;;
72205;SDS011;60111;48.286;7.812;2023-04-23T05:27:57;2.27;;;1.00;;
72205;SDS011;60111;48.286;7.812;2023-04-23T05:30:30;1.12;;;0.93;;
72205;SDS011;60111;48.286;7.812;2023-04-23T05:33:03;2.08;;;1.20;;
72205;SDS011;60111;48.286;7.812;2023-04-23T05:35:35;1.82;;;1.20;;
72205;SDS011;60111;48.286;7.812;2023-04-23T05:38:08;2.60;;;1.07;;
72205;SDS011;60111;48.286;7.812;2023-04-23T05:40:41;1.50;;;0.82;;
72205;SDS011;60111;48.286;7.812;2023-04-23T05:43:14;1.37;;;0.90;;
72205;SDS011;60111;48.286;7.812;2023-04-23T05:45:48;2.55;;;1.20;;
72205;SDS011;60111;48.286;7.812;2023-04-23T05:48:20;2.95;;;1.00;;
72205;SDS011;60111;48.286;7.812;2023-04-23T05:50:53;3.08;;;0.90;;
72205;SDS011;60111;48.286;7.812;2023-04-23T05:53:26;1.20;;;0.90;;
72205;SDS011;60111;48.286;7.812;2023-04-23T05:55:59;1.20;;;1.10;;
72205;SDS011;60111;48.286;7.812;2023-04-23T05:58:32;0.72;;;0.72;;
72205;SDS011;60111;48.286;7.812;2023-04-23T06:01:05;1.37;;;1.00;;
72205;SDS011;60111;48.286;7.812;2023-04-23T06:03:38;1.67;;;1.05;;
72205;SDS011;60111;48.286;7.812;2023-04-23T06:06:12;1.07;;;0.98;;
72205;SDS011;60111;48.286;7.812;2023-04-23T06:08:45;1.45;;;1.00;;
72205;SDS011;60111;48.286;7.812;2023-04-23T06:11:18;1.15;;;1.07;;
72205;SDS011;60111;48.286;7.812;2023-04-23T06:13:51;0.93;;;0.93;;
72205;SDS011;60111;48.286;7.812;2023-04-23T06:16:24;0.90;;;0.90;;
72205;SDS011;60111;48.286;7.812;2023-04-23T06:18:56;1.98;;;1.12;;
72205;SDS011;60111;48.286;7.812;2023-04-23T06:21:29;1.35;;;1.25;;
72205;SDS011;60111;48.286;7.812;2023-04-23T06:24:02;1.60;;;1.00;;
72205;SDS011;60111;48.286;7.812;2023-04-23T06:26:35;1.10;;;1.00;;
72205;SDS011;60111;48.286;7.812;2023-04-23T06:29:07;3.58;;;1.10;;
72205;SDS011;60111;48.286;7.812;2023-04-23T06:31:40;2.00;;;1.10;;
72205;SDS011;60111;48.286;7.812;2023-04-23T06:34:12;2.08;;;1.10;;
72205;SDS011;60111;48.286;7.812;2023-04-23T06:36:45;1.40;;;0.93;;
72205;SDS011;60111;48.286;7.812;2023-04-23T06:39:18;1.37;;;1.27;;
72205;SDS011;60111;48.286;7.812;2023-04-23T06:41:51;1.10;;;1.10;;
72205;SDS011;60111;48.286;7.812;2023-04-23T06:44:23;1.25;;;1.10;;
72205;SDS011;60111;48.286;7.812;2023-04-23T06:46:56;1.98;;;1.15;;
72205;SDS011;60111;48.286;7.812;2023-04-23T06:49:28;1.52;;;1.20;;
72205;SDS011;60111;48.286;7.812;2023-04-23T06:52:01;1.90;;;1.07;;
72205;SDS011;60111;48.286;7.812;2023-04-23T06:54:34;1.20;;;1.10;;
72205;SDS011;60111;48.286;7.812;2023-04-23T06:57:06;1.10;;;1.00;;
72205;SDS011;60111;48.286;7.812;2023-04-23T06:59:39;1.42;;;1.20;;
72205;SDS011;60111;48.286;7.812;2023-04-23T07:02:11;1.27;;;1.10;;
72205;SDS011;60111;48.286;7.812;2023-04-23T07:04:44;1.62;;;1.20;;
72205;SDS011;60111;48.286;7.812;2023-04-23T07:07:18;1.43;;;1.00;;
72205;SDS011;60111;48.286;7.812;2023-04-23T07:09:50;1.70;;;1.00;;
72205;SDS011;60111;48.286;7.812;2023-04-23T07:12:23;1.50;;;1.10;;
72205;SDS011;60111;48.286;7.812;2023-04-23T07:14:55;1.35;;;0.90;;
72205;SDS011;60111;48.286;7.812;2023-04-23T07:17:28;0.95;;;0.90;;
72205;SDS011;60111;48.286;7.812;2023-04-23T07:20:01;1.30;;;1.00;;
72205;SDS011;60111;48.286;7.812;2023-04-23T07:22:35;1.52;;;1.00;;
72205;SDS011;60111;48.286;7.812;2023-04-23T07:25:08;1.20;;;0.93;;
72205;SDS011;60111;48.286;7.812;2023-04-23T07:27:41;2.30;;;1.70;;
72205;SDS011;60111;48.286;7.812;2023-04-23T07:30:13;2.92;;;2.22;;
72205;SDS011;60111;48.286;7.812;2023-04-23T07:32:46;0.85;;;0.78;;
72205;SDS011;60111;48.286;7.812;2023-04-23T07:35:19;1.92;;;1.20;;
72205;SDS011;60111;48.286;7.812;2023-04-23T07:37:52;1.05;;;1.02;;
72205;SDS011;60111;48.286;7.812;2023-04-23T07:40:26;1.47;;;0.90;;
72205;SDS011;60111;48.286;7.812;2023-04-23T07:42:59;1.10;;;0.90;;
72205;SDS011;60111;48.286;7.812;2023-04-23T07:45:32;1.22;;;1.00;;
72205;SDS011;60111;48.286;7.812;2023-04-23T07:48:04;3.42;;;1.20;;
72205;SDS011;60111;48.286;7.812;2023-04-23T07:50:37;1.67;;;1.30;;
72205;SDS011;60111;48.286;7.812;2023-04-23T07:53:10;2.60;;;1.20;;
72205;SDS011;60111;48.286;7.812;2023-04-23T07:55:42;2.05;;;1.25;;
72205;SDS011;60111;48.286;7.812;2023-04-23T07:58:15;2.37;;;1.20;;
72205;SDS011;60111;48.286;7.812;2023-04-23T08:00:48;1.77;;;1.10;;
72205;SDS011;60111;48.286;7.812;2023-04-23T08:03:21;1.30;;;1.20;;
72205;SDS011;60111;48.286;7.812;2023-04-23T08:05:54;2.70;;;1.07;;
72205;SDS011;60111;48.286;7.812;2023-04-23T08:08:27;1.52;;;1.10;;
72205;SDS011;60111;48.286;7.812;2023-04-23T08:10:59;2.00;;;0.93;;
72205;SDS011;60111;48.286;7.812;2023-04-23T08:13:32;2.27;;;0.90;;
72205;SDS011;60111;48.286;7.812;2023-04-23T08:16:05;1.75;;;1.20;;
72205;SDS011;60111;48.286;7.812;2023-04-23T08:18:37;1.20;;;1.10;;
72205;SDS011;60111;48.286;7.812;2023-04-23T08:21:10;1.15;;;1.02;;
72205;SDS011;60111;48.286;7.812;2023-04-23T08:23:43;3.33;;;1.37;;
72205;SDS011;60111;48.286;7.812;2023-04-23T08:26:16;2.58;;;1.20;;
72205;SDS011;60111;48.286;7.812;2023-04-23T08:28:48;2.20;;;1.10;;
72205;SDS011;60111;48.286;7.812;2023-04-23T08:31:21;1.20;;;1.10;;
72205;SDS011;60111;48.286;7.812;2023-04-23T08:33:54;2.30;;;1.20;;
72205;SDS011;60111;48.286;7.812;2023-04-23T08:36:27;1.23;;;1.13;;
72205;SDS011;60111;48.286;7.812;2023-04-23T08:39:00;1.55;;;1.20;;
72205;SDS011;60111;48.286;7.812;2023-04-23T08:41:35;3.17;;;1.40;;
72205;SDS011;60111;48.286;7.812;2023-04-23T08:44:20;1.67;;;1.22;;
72205;SDS011;60111;48.286;7.812;2023-04-23T08:46:49;2.17;;;1.23;;
72205;SDS011;60111;48.286;7.812;2023-04-23T08:49:24;1.20;;;1.02;;
72205;SDS011;60111;48.286;7.812;2023-04-23T08:52:05;2.62;;;1.50;;
72205;SDS011;60111;48.286;7.812;2023-04-23T08:54:40;1.50;;;1.40;;
72205;SDS011;60111;48.286;7.812;2023-04-23T08:59:48;1.40;;;1.20;;
72205;SDS011;60111;48.286;7.812;2023-04-23T09:02:21;1.20;;;1.10;;
72205;SDS011;60111;48.286;7.812;2023-04-23T09:04:54;1.50;;;1.33;;
72205;SDS011;60111;48.286;7.812;2023-04-23T09:07:27;2.02;;;1.42;;
72205;SDS011;60111;48.286;7.812;2023-04-23T09:10:00;1.70;;;1.50;;
72205;SDS011;60111;48.286;7.812;2023-04-23T09:12:37;1.57;;;1.27;;
72205;SDS011;60111;48.286;7.812;2023-04-23T09:15:11;3.90;;;1.15;;
72205;SDS011;60111;48.286;7.812;2023-04-23T09:17:45;2.65;;;1.35;;
72205;SDS011;60111;48.286;7.812;2023-04-23T09:20:19;4.15;;;1.60;;
72205;SDS011;60111;48.286;7.812;2023-04-23T09:22:52;1.40;;;1.27;;
72205;SDS011;60111;48.286;7.812;2023-04-23T09:25:24;1.45;;;1.35;;
72205;SDS011;60111;48.286;7.812;2023-04-23T09:27:57;2.02;;;1.40;;
72205;SDS011;60111;48.286;7.812;2023-04-23T09:30:36;1.60;;;1.50;;
72205;SDS011;60111;48.286;7.812;2023-04-23T09:33:09;1.30;;;1.20;;
72205;SDS011;60111;48.286;7.812;2023-04-23T09:35:42;1.87;;;1.27;;
72205;SDS011;60111;48.286;7.812;2023-04-23T09:38:18;2.83;;;1.30;;
72205;SDS011;60111;48.286;7.812;2023-04-23T09:43:23;2.40;;;1.50;;
72205;SDS011;60111;48.286;7.812;2023-04-23T09:45:57;1.40;;;1.20;;
72205;SDS011;60111;48.286;7.812;2023-04-23T09:51:04;2.22;;;1.40;;
72205;SDS011;60111;48.286;7.812;2023-04-23T09:53:41;1.42;;;1.25;;
72205;SDS011;60111;48.286;7.812;2023-04-23T09:56:15;2.20;;;1.17;;
72205;SDS011;60111;48.286;7.812;2023-04-23T09:58:51;1.95;;;1.00;;
72205;SDS011;60111;48.286;7.812;2023-04-23T10:01:27;3.20;;;1.20;;
72205;SDS011;60111;48.286;7.812;2023-04-23T10:04:00;4.50;;;1.55;;
72205;SDS011;60111;48.286;7.812;2023-04-23T10:06:33;1.53;;;1.20;;
72205;SDS011;60111;48.286;7.812;2023-04-23T10:09:07;1.10;;;1.00;;
72205;SDS011;60111;48.286;7.812;2023-04-23T10:11:40;1.62;;;1.20;;
72205;SDS011;60111;48.286;7.812;2023-04-23T10:14:13;1.43;;;0.90;;
72205;SDS011;60111;48.286;7.812;2023-04-23T10:16:46;1.47;;;0.90;;
72205;SDS011;60111;48.286;7.812;2023-04-23T10:19:22;1.07;;;0.82;;
72205;SDS011;60111;48.286;7.812;2023-04-23T10:24:34;0.60;;;0.60;;
72205;SDS011;60111;48.286;7.812;2023-04-23T10:27:11;2.25;;;0.70;;
72205;SDS011;60111;48.286;7.812;2023-04-23T10:29:46;1.77;;;0.68;;
72205;SDS011;60111;48.286;7.812;2023-04-23T10:32:20;2.67;;;0.90;;
72205;SDS011;60111;48.286;7.812;2023-04-23T10:34:53;1.63;;;0.80;;
72205;SDS011;60111;48.286;7.812;2023-04-23T10:37:26;3.70;;;0.80;;
72205;SDS011;60111;48.286;7.812;2023-04-23T10:40:02;0.82;;;0.65;;
72205;SDS011;60111;48.286;7.812;2023-04-23T10:42:42;0.90;;;0.70;;
72205;SDS011;60111;48.286;7.812;2023-04-23T10:45:17;1.27;;;0.90;;
72205;SDS011;60111;48.286;7.812;2023-04-23T10:47:52;1.22;;;0.50;;
72205;SDS011;60111;48.286;7.812;2023-04-23T10:50:28;1.10;;;0.80;;
72205;SDS011;60111;48.286;7.812;2023-04-23T10:53:02;1.30;;;0.70;;
72205;SDS011;60111;48.286;7.812;2023-04-23T10:55:35;0.60;;;0.60;;
72205;SDS011;60111;48.286;7.812;2023-04-23T10:58:08;1.35;;;0.88;;
72205;SDS011;60111;48.286;7.812;2023-04-23T11:06:18;0.60;;;0.60;;
72205;SDS011;60111;48.286;7.812;2023-04-23T11:08:59;0.95;;;0.50;;
72205;SDS011;60111;48.286;7.812;2023-04-23T11:11:41;1.60;;;0.67;;
72205;SDS011;60111;48.286;7.812;2023-04-23T11:14:14;1.00;;;0.80;;
72205;SDS011;60111;48.286;7.812;2023-04-23T11:16:47;3.22;;;0.95;;
72205;SDS011;60111;48.286;7.812;2023-04-23T11:19:20;1.27;;;0.93;;
72205;SDS011;60111;48.286;7.812;2023-04-23T11:24:42;2.77;;;0.80;;
72205;SDS011;60111;48.286;7.812;2023-04-23T11:27:16;2.05;;;0.70;;
72205;SDS011;60111;48.286;7.812;2023-04-23T11:29:50;1.83;;;1.00;;
72205;SDS011;60111;48.286;7.812;2023-04-23T11:34:57;2.15;;;0.90;;
72205;SDS011;60111;48.286;7.812;2023-04-23T11:37:37;8.93;;;1.07;;
72205;SDS011;60111;48.286;7.812;2023-04-23T11:40:11;2.87;;;0.80;;
72205;SDS011;60111;48.286;7.812;2023-04-23T11:42:48;1.80;;;1.10;;
72205;SDS011;60111;48.286;7.812;2023-04-23T11:45:24;2.65;;;0.90;;
72205;SDS011;60111;48.286;7.812;2023-04-23T11:47:59;2.90;;;1.00;;
72205;SDS011;60111;48.286;7.812;2023-04-23T11:50:31;2.83;;;1.13;;
72205;SDS011;60111;48.286;7.812;2023-04-23T11:53:05;2.30;;;1.23;;
72205;SDS011;60111;48.286;7.812;2023-04-23T11:55:42;4.85;;;1.32;;
72205;SDS011;60111;48.286;7.812;2023-04-23T11:58:18;3.37;;;1.10;;
72205;SDS011;60111;48.286;7.812;2023-04-23T12:00:56;1.20;;;0.68;;
72205;SDS011;60111;48.286;7.812;2023-04-23T12:03:30;2.05;;;1.00;;
72205;SDS011;60111;48.286;7.812;2023-04-23T12:06:02;3.90;;;1.20;;
72205;SDS011;60111;48.286;7.812;2023-04-23T12:08:35;2.25;;;1.10;;
72205;SDS011;60111;48.286;7.812;2023-04-23T12:11:10;1.35;;;0.80;;
72205;SDS011;60111;48.286;7.812;2023-04-23T12:13:43;4.47;;;1.17;;
72205;SDS011;60111;48.286;7.812;2023-04-23T12:16:16;3.93;;;1.60;;
72205;SDS011;60111;48.286;7.812;2023-04-23T12:18:52;7.55;;;1.00;;
72205;SDS011;60111;48.286;7.812;2023-04-23T12:21:24;0.93;;;0.80;;
72205;SDS011;60111;48.286;7.812;2023-04-23T12:23:58;1.32;;;0.90;;
72205;SDS011;60111;48.286;7.812;2023-04-23T12:26:35;2.27;;;0.90;;
72205;SDS011;60111;48.286;7.812;2023-04-23T12:29:08;3.63;;;1.10;;
72205;SDS011;60111;48.286;7.812;2023-04-23T12:31:42;1.57;;;0.85;;
72205;SDS011;60111;48.286;7.812;2023-04-23T12:34:14;5.25;;;1.00;;
72205;SDS011;60111;48.286;7.812;2023-04-23T12:36:48;2.35;;;1.05;;
72205;SDS011;60111;48.286;7.812;2023-04-23T12:39:24;1.82;;;0.80;;
72205;SDS011;60111;48.286;7.812;2023-04-23T12:42:01;3.08;;;1.22;;
72205;SDS011;60111;48.286;7.812;2023-04-23T12:44:37;4.00;;;1.20;;
72205;SDS011;60111;48.286;7.812;2023-04-23T12:47:10;3.90;;;1.25;;
72205;SDS011;60111;48.286;7.812;2023-04-23T12:49:44;2.15;;;0.90;;
72205;SDS011;60111;48.286;7.812;2023-04-23T12:52:20;5.10;;;1.10;;
72205;SDS011;60111;48.286;7.812;2023-04-23T12:54:52;3.12;;;1.00;;
72205;SDS011;60111;48.286;7.812;2023-04-23T12:57:26;5.33;;;0.90;;
72205;SDS011;60111;48.286;7.812;2023-04-23T12:59:59;1.20;;;0.90;;
72205;SDS011;60111;48.286;7.812;2023-04-23T13:02:32;2.83;;;1.10;;
72205;SDS011;60111;48.286;7.812;2023-04-23T13:05:04;2.60;;;1.00;;
72205;SDS011;60111;48.286;7.812;2023-04-23T13:07:37;1.75;;;1.07;;
72205;SDS011;60111;48.286;7.812;2023-04-23T13:10:10;4.40;;;1.10;;
72205;SDS011;60111;48.286;7.812;2023-04-23T13:12:43;1.37;;;1.07;;
72205;SDS011;60111;48.286;7.812;2023-04-23T13:15:15;2.55;;;1.00;;
72205;SDS011;60111;48.286;7.812;2023-04-23T13:17:48;1.80;;;0.88;;
72205;SDS011;60111;48.286;7.812;2023-04-23T13:20:22;4.00;;;1.20;;
72205;SDS011;60111;48.286;7.812;2023-04-23T13:22:57;1.23;;;0.87;;
72205;SDS011;60111;48.286;7.812;2023-04-23T13:25:29;3.47;;;1.00;;
72205;SDS011;60111;48.286;7.812;2023-04-23T13:28:02;4.35;;;1.05;;
72205;SDS011;60111;48.286;7.812;2023-04-23T13:30:36;2.30;;;1.05;;
72205;SDS011;60111;48.286;7.812;2023-04-23T13:33:10;1.02;;;0.93;;
72205;SDS011;60111;48.286;7.812;2023-04-23T13:35:43;1.12;;;1.02;;
72205;SDS011;60111;48.286;7.812;2023-04-23T13:38:17;2.52;;;1.10;;
72205;SDS011;60111;48.286;7.812;2023-04-23T13:40:51;1.50;;;0.93;;
72205;SDS011;60111;48.286;7.812;2023-04-23T13:43:23;3.00;;;1.37;;
72205;SDS011;60111;48.286;7.812;2023-04-23T13:45:56;2.37;;;1.10;;
72205;SDS011;60111;48.286;7.812;2023-04-23T13:48:30;1.70;;;1.10;;
72205;SDS011;60111;48.286;7.812;2023-04-23T13:51:03;4.03;;;1.07;;
72205;SDS011;60111;48.286;7.812;2023-04-23T13:53:36;2.70;;;1.10;;
72205;SDS011;60111;48.286;7.812;2023-04-23T13:56:08;3.92;;;1.00;;
72205;SDS011;60111;48.286;7.812;2023-04-23T13:58:53;2.10;;;1.20;;
72205;SDS011;60111;48.286;7.812;2023-04-23T14:01:27;3.70;;;1.05;;
72205;SDS011;60111;48.286;7.812;2023-04-23T14:04:00;2.17;;;1.10;;
72205;SDS011;60111;48.286;7.812;2023-04-23T14:06:34;2.27;;;1.10;;
72205;SDS011;60111;48.286;7.812;2023-04-23T14:09:06;2.50;;;1.10;;
72205;SDS011;60111;48.286;7.812;2023-04-23T14:11:39;3.42;;;1.20;;
72205;SDS011;60111;48.286;7.812;2023-04-23T14:14:12;2.83;;;0.90;;
72205;SDS011;60111;48.286;7.812;2023-04-23T14:16:45;2.93;;;1.13;;
72205;SDS011;60111;48.286;7.812;2023-04-23T14:19:17;1.50;;;1.10;;
72205;SDS011;60111;48.286;7.812;2023-04-23T14:21:50;3.45;;;1.00;;
72205;SDS011;60111;48.286;7.812;2023-04-23T14:24:26;2.62;;;1.15;;
72205;SDS011;60111;48.286;7.812;2023-04-23T14:27:01;4.67;;;1.17;;
72205;SDS011;60111;48.286;7.812;2023-04-23T14:29:34;1.87;;;1.27;;
72205;SDS011;60111;48.286;7.812;2023-04-23T14:32:12;3.70;;;1.70;;
72205;SDS011;60111;48.286;7.812;2023-04-23T14:34:45;2.20;;;1.15;;
72205;SDS011;60111;48.286;7.812;2023-04-23T14:37:17;3.37;;;1.15;;
72205;SDS011;60111;48.286;7.812;2023-04-23T14:39:51;3.77;;;1.30;;
72205;SDS011;60111;48.286;7.812;2023-04-23T14:42:23;3.57;;;1.40;;
72205;SDS011;60111;48.286;7.812;2023-04-23T14:44:57;1.90;;;1.40;;
72205;SDS011;60111;48.286;7.812;2023-04-23T14:47:31;4.42;;;1.37;;
72205;SDS011;60111;48.286;7.812;2023-04-23T14:50:04;2.62;;;1.30;;
72205;SDS011;60111;48.286;7.812;2023-04-23T14:52:37;3.57;;;1.70;;
72205;SDS011;60111;48.286;7.812;2023-04-23T14:55:10;6.70;;;1.90;;
72205;SDS011;60111;48.286;7.812;2023-04-23T14:57:42;3.50;;;1.75;;
72205;SDS011;60111;48.286;7.812;2023-04-23T15:00:15;4.15;;;1.42;;
72205;SDS011;60111;48.286;7.812;2023-04-23T15:02:48;4.67;;;1.60;;
72205;SDS011;60111;48.286;7.812;2023-04-23T15:05:22;4.20;;;1.75;;
72205;SDS011;60111;48.286;7.812;2023-04-23T15:07:55;1.75;;;1.20;;
72205;SDS011;60111;48.286;7.812;2023-04-23T15:10:28;6.83;;;1.45;;
72205;SDS011;60111;48.286;7.812;2023-04-23T15:13:01;5.25;;;1.55;;
72205;SDS011;60111;48.286;7.812;2023-04-23T15:15:42;2.40;;;1.50;;
72205;SDS011;60111;48.286;7.812;2023-04-23T15:18:18;4.70;;;1.80;;
72205;SDS011;60111;48.286;7.812;2023-04-23T15:20:51;2.67;;;1.60;;
72205;SDS011;60111;48.286;7.812;2023-04-23T15:23:24;3.72;;;1.70;;
72205;SDS011;60111;48.286;7.812;2023-04-23T15:25:56;3.25;;;1.60;;
72205;SDS011;60111;48.286;7.812;2023-04-23T15:28:29;2.20;;;1.52;;
72205;SDS011;60111;48.286;7.812;2023-04-23T15:31:02;3.12;;;1.82;;
72205;SDS011;60111;48.286;7.812;2023-04-23T15:33:35;4.23;;;1.70;;
72205;SDS011;60111;48.286;7.812;2023-04-23T15:36:08;4.70;;;1.67;;
72205;SDS011;60111;48.286;7.812;2023-04-23T15:38:41;2.40;;;1.60;;
72205;SDS011;60111;48.286;7.812;2023-04-23T15:41:13;7.10;;;1.98;;
72205;SDS011;60111;48.286;7.812;2023-04-23T15:43:46;5.20;;;1.62;;
72205;SDS011;60111;48.286;7.812;2023-04-23T15:46:20;3.08;;;1.35;;